Terminal Aerodrome Forecast
Issued by NWS Missoula, MT

Home | Current Version | Previous Version | Text Only | Print | Product List | Glossary On
Versions: 1 2 3 4 5 6 7 8 9 10 11 12 13 14 15 16
000
FTUS45 KMSO 011700
TAFBTM
TAF
KBTM 011720Z 0118/0218 VRB05KT P6SM SCT120
     FM012000 13012KT P6SM -SHRA VCTS SCT060 BKN080CB
     FM020200 VRB06KT P6SM VCSH BKN080=

USA.gov is the U.S. government's official web portal to all federal, state and local government web resources and services.